Time;durP1;ratioP1;P1;durP2;ratioP2;P2;SDS_P1;SDS_P2;PMS_P1;PMS_P2;Temp;Humidity;BMP_temperature;BMP_pressure;BME280_temperature;BME280_humidity;BME280_pressure;Samples;Min_cycle;Max_cycle;Signal;HPM_P1;HPM_P2
2023/06/06 00:00:13;;;;;;;15.93;10.32;;;;;;;-146.58;100.00;69501.63;5030381;28;20072;-65
2023/06/06 00:02:40;;;;;;;13.43;10.40;;;;;;;-146.58;100.00;69501.63;5031827;28;20072;-65
2023/06/06 00:05:07;;;;;;;17.70;10.43;;;;;;;-146.58;100.00;69501.63;5030396;28;20060;-64
2023/06/06 00:07:34;;;;;;;17.92;11.65;;;;;;;-146.58;100.00;69501.63;5031433;28;20021;-65
2023/06/06 00:10:00;;;;;;;15.20;10.13;;;;;;;-146.58;100.00;69501.63;5030543;28;20110;-64
2023/06/06 00:12:25;;;;;;;13.43;10.13;;;;;;;-146.58;100.00;69501.63;5032066;28;20411;-65
2023/06/06 00:14:51;;;;;;;12.38;10.50;;;;;;;-146.58;100.00;69501.63;5029727;28;20044;-64
2023/06/06 00:17:17;;;;;;;14.57;10.52;;;;;;;-146.58;100.00;69501.63;5031866;28;20416;-65
2023/06/06 00:19:42;;;;;;;14.32;9.88;;;;;;;-146.58;100.00;69501.63;5030171;28;20052;-65
2023/06/06 00:22:09;;;;;;;17.70;10.75;;;;;;;-146.58;100.00;69501.63;5031416;28;20029;-64
2023/06/06 00:24:34;;;;;;;12.13;9.80;;;;;;;-146.58;100.00;69501.63;5030000;28;20435;-65
2023/06/06 00:27:00;;;;;;;19.02;11.77;;;;;;;-146.58;100.00;69501.63;5031524;28;20045;-65
2023/06/06 00:29:25;;;;;;;17.30;10.30;;;;;;;-146.58;100.00;69501.63;5030307;28;20041;-64
2023/06/06 00:31:50;;;;;;;14.77;10.30;;;;;;;-146.58;100.00;69501.63;5030999;28;20095;-64
2023/06/06 00:34:16;;;;;;;11.88;9.57;;;;;;;-146.58;100.00;69501.63;5030107;28;20037;-64
2023/06/06 00:36:41;;;;;;;14.32;9.55;;;;;;;-146.58;100.00;69501.63;5031077;28;20029;-64
2023/06/06 00:39:06;;;;;;;12.60;11.23;;;;;;;-146.58;100.00;69501.63;5029861;28;20048;-64
2023/06/06 00:41:32;;;;;;;12.13;9.50;;;;;;;-146.58;100.00;69501.63;5030280;28;20554;-65
2023/06/06 00:43:57;;;;;;;13.80;10.27;;;;;;;-146.58;100.00;69501.63;5029617;28;20045;-64
2023/06/06 00:46:23;;;;;;;14.88;11.18;;;;;;;-146.58;100.00;69501.63;5031054;28;20018;-64
2023/06/06 00:48:49;;;;;;;13.43;9.88;;;;;;;-146.58;100.00;69501.63;5029562;28;20488;-64
2023/06/06 00:51:15;;;;;;;14.75;10.27;;;;;;;-146.58;100.00;69501.63;5031531;28;20087;-64
2023/06/06 00:53:41;;;;;;;12.38;8.82;;;;;;;-146.58;100.00;69501.63;5029280;28;20515;-65
2023/06/06 00:56:07;;;;;;;17.58;10.45;;;;;;;-146.58;100.00;69501.63;5031116;28;20017;-64
2023/06/06 00:58:32;;;;;;;14.07;10.43;;;;;;;-146.58;100.00;69501.63;5029866;28;20052;-64
2023/06/06 01:00:58;;;;;;;15.95;12.20;;;;;;;-146.58;100.00;69501.63;5030489;28;20532;-64
2023/06/06 01:03:24;;;;;;;17.02;10.02;;;;;;;-146.58;100.00;69501.63;5029475;28;20073;-64
2023/06/06 01:05:55;;;;;;;23.85;12.52;;;;;;;-146.58;100.00;69501.63;5030660;28;20037;-65
2023/06/06 01:08:21;;;;;;;18.48;11.27;;;;;;;-146.58;100.00;69501.63;5029552;28;20076;-64
2023/06/06 01:10:47;;;;;;;21.45;12.40;;;;;;;-146.58;100.00;69501.63;5030482;28;20032;-65
2023/06/06 01:13:33;;;;;;;26.23;13.43;;;;;;;-146.58;100.00;69501.63;5029235;28;20472;-66
2023/06/06 01:16:05;;;;;;;19.08;11.95;;;;;;;-146.58;100.00;69501.63;5030100;28;21906;-64
2023/06/06 01:18:31;;;;;;;16.70;11.20;;;;;;;-146.58;100.00;69501.63;5029439;28;20103;-67
2023/06/06 01:20:58;;;;;;;15.02;9.95;;;;;;;-146.58;100.00;69501.63;5030912;28;20100;-64
2023/06/06 01:23:23;;;;;;;12.48;10.98;;;;;;;-146.58;100.00;69501.63;5029047;28;20108;-64
2023/06/06 01:25:49;;;;;;;13.90;11.15;;;;;;;-146.58;100.00;69501.63;5030510;28;20537;-64
2023/06/06 01:28:16;;;;;;;24.63;13.40;;;;;;;-146.58;100.00;69501.63;5029292;28;20469;-65
2023/06/06 01:30:43;;;;;;;18.95;13.77;;;;;;;-146.58;100.00;69501.63;5030482;28;20108;-64
2023/06/06 01:33:28;;;;;;;17.25;10.93;;;;;;;-146.58;100.00;69501.63;5030276;28;20021;-64
2023/06/06 01:36:17;;;;;;;17.42;11.88;;;;;;;-146.58;100.00;69501.63;5009710;28;20042;-64
2023/06/06 01:39:15;;;;;;;19.88;11.10;;;;;;;-146.58;100.00;69501.63;5009576;28;20068;-64
2023/06/06 01:41:41;;;;;;;25.50;14.70;;;;;;;-146.58;100.00;69501.63;5006016;28;20038;-65
2023/06/06 01:44:08;;;;;;;20.52;12.40;;;;;;;-146.58;100.00;69501.63;5009209;28;20040;-65
2023/06/06 01:46:36;;;;;;;14.88;10.10;;;;;;;-146.58;100.00;69501.63;5010820;28;20033;-64
2023/06/06 01:49:02;;;;;;;15.67;11.20;;;;;;;-146.58;100.00;69501.63;5009462;28;20497;-64
2023/06/06 01:51:28;;;;;;;14.38;10.73;;;;;;;-146.58;100.00;69501.63;5010254;28;20029;-65
2023/06/06 01:53:56;;;;;;;18.33;11.52;;;;;;;-146.58;100.00;69501.63;5011575;28;20041;-65
2023/06/06 01:56:23;;;;;;;17.80;12.43;;;;;;;-146.58;100.00;69501.63;5014629;28;20492;-64
2023/06/06 01:58:48;;;;;;;36.38;20.98;;;;;;;-146.58;100.00;69501.63;5012677;28;20540;-64
2023/06/06 02:01:14;;;;;;;13.60;11.07;;;;;;;-146.58;100.00;69501.63;5014456;28;20025;-65
2023/06/06 02:03:39;;;;;;;20.00;12.70;;;;;;;-146.58;100.00;69501.63;5012814;28;20041;-65
2023/06/06 02:06:05;;;;;;;21.20;13.88;;;;;;;-146.58;100.00;69501.63;5014102;28;20080;-65
2023/06/06 02:08:30;;;;;;;12.48;10.90;;;;;;;-146.58;100.00;69501.63;5013260;28;20038;-64
2023/06/06 02:10:56;;;;;;;18.17;11.93;;;;;;;-146.58;100.00;69501.63;5013929;28;20030;-65
2023/06/06 02:13:21;;;;;;;21.50;15.02;;;;;;;-146.58;100.00;69501.63;5012249;28;20037;-64
2023/06/06 02:15:46;;;;;;;18.77;12.15;;;;;;;-146.58;100.00;69501.63;5014133;28;20025;-65
2023/06/06 02:18:12;;;;;;;18.85;12.10;;;;;;;-146.58;100.00;69501.63;5013046;28;20060;-64
2023/06/06 02:20:37;;;;;;;15.38;12.88;;;;;;;-146.58;100.00;69501.63;5013667;28;20036;-65
2023/06/06 02:23:03;;;;;;;17.08;11.88;;;;;;;-146.58;100.00;69501.63;5014466;28;20026;-65
2023/06/06 02:25:28;;;;;;;19.90;11.65;;;;;;;-146.58;100.00;69501.63;5012415;28;20240;-65
2023/06/06 02:27:55;;;;;;;31.50;17.98;;;;;;;-146.58;100.00;69501.63;5013954;28;20025;-65
2023/06/06 02:30:22;;;;;;;16.83;13.13;;;;;;;-146.58;100.00;69501.63;5012272;28;20042;-65
2023/06/06 02:32:50;;;;;;;19.38;11.63;;;;;;;-146.58;100.00;69501.63;5013818;28;20072;-65
2023/06/06 02:35:18;;;;;;;16.70;10.93;;;;;;;-146.58;100.00;69501.63;5012480;28;20405;-65
2023/06/06 02:37:43;;;;;;;16.03;13.40;;;;;;;-146.58;100.00;69501.63;5013953;28;20021;-65
2023/06/06 02:40:10;;;;;;;16.83;11.73;;;;;;;-146.58;100.00;69501.63;5012374;28;20424;-65
2023/06/06 02:42:38;;;;;;;21.00;12.35;;;;;;;-146.58;100.00;69501.63;5013815;28;20119;-66
2023/06/06 02:45:04;;;;;;;21.30;12.68;;;;;;;-146.58;100.00;69501.63;5011717;28;20042;-66
2023/06/06 02:47:30;;;;;;;21.50;13.38;;;;;;;-146.58;100.00;69501.63;5013914;28;20392;-66
2023/06/06 02:49:55;;;;;;;16.40;13.05;;;;;;;-146.58;100.00;69501.63;5011459;28;20038;-66
2023/06/06 02:52:21;;;;;;;18.35;12.02;;;;;;;-146.58;100.00;69501.63;5013509;28;20037;-66
2023/06/06 02:54:47;;;;;;;19.58;13.20;;;;;;;-146.58;100.00;69501.63;5011993;28;20198;-66
2023/06/06 02:57:12;;;;;;;16.10;12.63;;;;;;;-146.58;100.00;69501.63;5013366;28;20030;-66
2023/06/06 02:59:37;;;;;;;21.25;13.02;;;;;;;-146.58;100.00;69501.63;5011553;28;20042;-66
2023/06/06 03:02:03;;;;;;;16.40;12.20;;;;;;;-146.58;100.00;69501.63;5013469;28;20029;-66
2023/06/06 03:04:28;;;;;;;29.17;14.90;;;;;;;-146.58;100.00;69501.63;5011201;28;20404;-66
2023/06/06 03:06:54;;;;;;;18.83;11.80;;;;;;;-146.58;100.00;69501.63;5012938;28;20476;-66
2023/06/06 03:09:19;;;;;;;19.73;13.23;;;;;;;-146.58;100.00;69501.63;5011815;28;20045;-66
2023/06/06 03:11:44;;;;;;;19.17;14.43;;;;;;;-146.58;100.00;69501.63;5012972;28;20481;-66
2023/06/06 03:14:10;;;;;;;23.05;13.65;;;;;;;-146.58;100.00;69501.63;5011654;28;20038;-65
2023/06/06 03:16:35;;;;;;;17.80;12.07;;;;;;;-146.58;100.00;69501.63;5013061;28;20542;-65
2023/06/06 03:19:01;;;;;;;14.88;11.90;;;;;;;-146.58;100.00;69501.63;5011823;28;20049;-66
2023/06/06 03:21:26;;;;;;;19.38;13.13;;;;;;;-146.58;100.00;69501.63;5013117;28;20575;-66
2023/06/06 03:23:53;;;;;;;22.20;13.18;;;;;;;-146.58;100.00;69501.63;5011264;28;20038;-65
2023/06/06 03:26:19;;;;;;;19.98;13.45;;;;;;;-146.58;100.00;69501.63;5012927;28;20469;-64
2023/06/06 03:28:45;;;;;;;16.55;12.50;;;;;;;-146.58;100.00;69501.63;5010807;28;20112;-65
2023/06/06 03:31:11;;;;;;;16.80;12.63;;;;;;;-146.58;100.00;69501.63;5013179;28;20113;-64
2023/06/06 03:33:36;;;;;;;15.48;10.75;;;;;;;-146.58;100.00;69501.63;5011419;28;20034;-66
2023/06/06 03:36:02;;;;;;;23.40;12.48;;;;;;;-146.58;100.00;69501.63;5012600;28;20010;-66
2023/06/06 03:38:28;;;;;;;17.33;12.43;;;;;;;-146.58;100.00;69501.63;5011616;28;20029;-67
2023/06/06 03:40:54;;;;;;;17.42;12.77;;;;;;;-146.58;100.00;69501.63;5012618;28;20053;-66
2023/06/06 03:43:19;;;;;;;21.95;12.68;;;;;;;-146.58;100.00;69501.63;5010687;28;20109;-66
2023/06/06 03:45:45;;;;;;;18.10;11.70;;;;;;;-146.58;100.00;69501.63;5012456;28;20428;-66
2023/06/06 03:48:10;;;;;;;18.27;13.73;;;;;;;-146.58;100.00;69501.63;5011525;28;20030;-65
2023/06/06 03:50:36;;;;;;;28.48;14.02;;;;;;;-146.58;100.00;69501.63;5011972;28;20026;-66
2023/06/06 03:53:02;;;;;;;19.42;13.00;;;;;;;-146.58;100.00;69501.63;5012264;28;20112;-63
2023/06/06 03:55:28;;;;;;;24.23;12.45;;;;;;;-146.58;100.00;69501.63;5010878;28;20037;-63
2023/06/06 03:57:54;;;;;;;24.13;13.25;;;;;;;-146.58;100.00;69501.63;5012297;28;20029;-63
2023/06/06 04:00:20;;;;;;;21.23;12.32;;;;;;;-146.58;100.00;69501.63;5026122;28;20042;-63
2023/06/06 04:02:46;;;;;;;19.27;11.23;;;;;;;-146.58;100.00;69501.63;5012177;28;20045;-65
2023/06/06 04:05:12;;;;;;;18.05;12.43;;;;;;;-146.58;100.00;69501.63;5010391;28;20512;-66
2023/06/06 04:07:38;;;;;;;23.27;14.77;;;;;;;-146.58;100.00;69501.63;5012220;28;20026;-65
2023/06/06 04:10:03;;;;;;;19.55;13.50;;;;;;;-146.58;100.00;69501.63;5010544;28;20048;-64
2023/06/06 04:12:29;;;;;;;15.90;11.65;;;;;;;-146.58;100.00;69501.63;5011328;28;20036;-67
2023/06/06 04:14:54;;;;;;;17.55;12.85;;;;;;;-146.58;100.00;69501.63;5010174;28;20050;-69
2023/06/06 04:17:21;;;;;;;18.25;12.25;;;;;;;-146.58;100.00;69501.63;5011497;28;20471;-68
2023/06/06 04:19:47;;;;;;;23.92;13.65;;;;;;;-146.58;100.00;69501.63;5009332;28;20038;-66
2023/06/06 04:22:13;;;;;;;29.85;16.20;;;;;;;-146.58;100.00;69501.63;5012085;28;20105;-66
2023/06/06 04:24:39;;;;;;;31.45;14.02;;;;;;;-146.58;100.00;69501.63;5010453;28;20046;-65
2023/06/06 04:27:05;;;;;;;29.00;14.57;;;;;;;-146.58;100.00;69501.63;5011214;28;20026;-62
2023/06/06 04:29:33;;;;;;;27.80;15.50;;;;;;;-146.58;100.00;69501.63;5010295;28;20038;-62
2023/06/06 04:32:02;;;;;;;22.95;13.77;;;;;;;-146.58;100.00;69501.63;5010631;28;20567;-62
2023/06/06 04:34:31;;;;;;;25.15;13.80;;;;;;;-146.58;100.00;69501.63;5009682;28;20466;-62
2023/06/06 04:37:03;;;;;;;21.65;12.77;;;;;;;-146.58;100.00;69501.63;5011608;28;20461;-62
2023/06/06 04:39:31;;;;;;;22.02;12.48;;;;;;;-146.58;100.00;69501.63;5009645;28;20049;-61
2023/06/06 04:41:58;;;;;;;21.60;12.32;;;;;;;-146.58;100.00;69501.63;5011127;28;20026;-62
2023/06/06 04:44:27;;;;;;;19.40;12.80;;;;;;;-146.58;100.00;69501.63;5010255;28;20052;-62
2023/06/06 04:47:00;;;;;;;21.05;14.85;;;;;;;-146.58;100.00;69501.63;5011445;28;20057;-62
2023/06/06 04:49:26;;;;;;;17.42;13.43;;;;;;;-146.58;100.00;69501.63;5009896;28;20038;-62
2023/06/06 04:51:52;;;;;;;16.38;12.90;;;;;;;-146.58;100.00;69501.63;5011239;28;20029;-62
2023/06/06 04:54:18;;;;;;;19.15;13.48;;;;;;;-146.58;100.00;69501.63;5010039;28;20120;-62
2023/06/06 04:56:45;;;;;;;24.15;14.85;;;;;;;-146.58;100.00;69501.63;5011043;28;20064;-62
2023/06/06 04:59:10;;;;;;;21.90;14.00;;;;;;;-146.58;100.00;69501.63;5010235;28;20037;-62
2023/06/06 05:01:36;;;;;;;17.60;13.18;;;;;;;-146.58;100.00;69501.63;5012011;28;20499;-61
2023/06/06 05:04:03;;;;;;;28.42;13.82;;;;;;;-146.58;100.00;69501.63;5009039;28;20133;-62
2023/06/06 05:06:31;;;;;;;17.00;12.90;;;;;;;-146.58;100.00;69501.63;5010887;28;20385;-62
2023/06/06 05:08:59;;;;;;;16.70;15.00;;;;;;;-146.58;100.00;69501.63;5008084;28;20452;-60
2023/06/06 05:11:25;;;;;;;21.58;14.45;;;;;;;-146.58;100.00;69501.63;5010470;28;20369;-62
2023/06/06 05:13:50;;;;;;;25.15;15.10;;;;;;;-146.58;100.00;69501.63;5006626;28;20100;-61
2023/06/06 05:16:16;;;;;;;28.58;17.35;;;;;;;-146.58;100.00;69501.63;5009457;28;20048;-62
2023/06/06 05:18:41;;;;;;;19.48;14.90;;;;;;;-146.58;100.00;69501.63;5008695;28;20041;-61
2023/06/06 05:21:07;;;;;;;16.80;14.77;;;;;;;-146.58;100.00;69501.63;5010733;28;20033;-61
2023/06/06 05:23:32;;;;;;;18.52;13.82;;;;;;;-146.58;100.00;69501.63;5009454;28;20100;-61
2023/06/06 05:25:58;;;;;;;20.27;13.77;;;;;;;-146.58;100.00;69501.63;5010884;28;20025;-61
2023/06/06 05:28:27;;;;;;;20.73;12.60;;;;;;;-146.58;100.00;69501.63;5008683;28;20459;-62
2023/06/06 05:30:52;;;;;;;26.73;13.88;;;;;;;-146.58;100.00;69501.63;5010993;28;20033;-62
2023/06/06 05:33:19;;;;;;;24.35;13.43;;;;;;;-146.58;100.00;69501.63;5009142;28;20026;-61
2023/06/06 05:35:46;;;;;;;27.05;14.85;;;;;;;-146.58;100.00;69501.63;5010883;28;20053;-62
2023/06/06 05:38:12;;;;;;;16.60;13.00;;;;;;;-146.58;100.00;69501.63;5008597;28;20041;-61
2023/06/06 05:40:37;;;;;;;20.48;14.00;;;;;;;-146.58;100.00;69501.63;5010121;28;20029;-62
2023/06/06 05:43:03;;;;;;;20.27;13.60;;;;;;;-146.58;100.00;69501.63;5010950;28;20021;-62
2023/06/06 05:45:28;;;;;;;17.85;12.30;;;;;;;-146.58;100.00;69501.63;5009399;28;20038;-62
2023/06/06 05:47:53;;;;;;;18.27;11.95;;;;;;;-146.58;100.00;69501.63;5009463;28;20026;-61
2023/06/06 05:50:18;;;;;;;20.83;12.23;;;;;;;-146.58;100.00;69501.63;5009462;28;20420;-61
2023/06/06 05:52:44;;;;;;;25.95;13.25;;;;;;;-146.58;100.00;69501.63;5010638;28;20026;-61
2023/06/06 05:55:29;;;;;;;20.45;13.23;;;;;;;-146.58;100.00;69501.63;5009224;28;20038;-61
2023/06/06 05:57:55;;;;;;;15.82;13.98;;;;;;;-146.58;100.00;69501.63;5006827;28;20033;-65
2023/06/06 06:00:21;;;;;;;20.67;15.30;;;;;;;-146.58;100.00;69501.63;5028745;28;20048;-65
2023/06/06 06:02:47;;;;;;;15.77;11.45;;;;;;;-146.58;100.00;69501.63;5029309;28;20045;-65
2023/06/06 06:05:12;;;;;;;21.83;12.63;;;;;;;-146.58;100.00;69501.63;5019218;28;20393;-65
2023/06/06 06:07:39;;;;;;;14.50;11.23;;;;;;;-146.58;100.00;69501.63;5010702;28;20033;-65
2023/06/06 06:10:05;;;;;;;13.15;10.38;;;;;;;-146.58;100.00;69501.63;5008790;28;20042;-65
2023/06/06 06:12:30;;;;;;;13.82;10.48;;;;;;;-146.58;100.00;69501.63;4990902;28;20502;-65
2023/06/06 06:14:56;;;;;;;15.88;11.13;;;;;;;-146.58;100.00;69501.63;4989258;28;20046;-63
2023/06/06 06:17:22;;;;;;;13.45;11.98;;;;;;;-146.58;100.00;69501.63;4990738;28;20030;-65
2023/06/06 06:19:47;;;;;;;16.67;11.63;;;;;;;-146.58;100.00;69501.63;4989306;28;20049;-65
2023/06/06 06:22:13;;;;;;;15.65;10.73;;;;;;;-146.58;100.00;69501.63;4990876;28;20050;-64
2023/06/06 06:24:38;;;;;;;15.27;9.82;;;;;;;-146.58;100.00;69501.63;5006565;28;20042;-65
2023/06/06 06:27:04;;;;;;;17.98;11.48;;;;;;;-146.58;100.00;69501.63;5010320;28;20500;-65
2023/06/06 06:29:29;;;;;;;13.43;10.07;;;;;;;-146.58;100.00;69501.63;5009113;28;20419;-65
2023/06/06 06:31:54;;;;;;;19.88;9.00;;;;;;;-146.58;100.00;69501.63;5007029;28;20033;-65
2023/06/06 06:34:20;;;;;;;15.60;10.50;;;;;;;-146.58;100.00;69501.63;5017365;28;20460;-65
2023/06/06 06:36:45;;;;;;;21.75;10.70;;;;;;;-146.58;100.00;69501.63;5012282;28;20396;-65
2023/06/06 06:39:10;;;;;;;17.15;11.35;;;;;;;-146.58;100.00;69501.63;5028669;28;20049;-65
2023/06/06 06:41:36;;;;;;;14.13;10.50;;;;;;;-146.58;100.00;69501.63;5031933;28;20025;-65
2023/06/06 06:44:01;;;;;;;16.80;10.02;;;;;;;-146.58;100.00;69501.63;5032315;28;20097;-65
2023/06/06 06:46:26;;;;;;;14.45;11.50;;;;;;;-146.58;100.00;69501.63;5032764;28;20396;-65
2023/06/06 06:48:52;;;;;;;16.60;9.25;;;;;;;-146.58;100.00;69501.63;5016242;28;20041;-64
2023/06/06 06:51:19;;;;;;;25.65;9.57;;;;;;;-146.58;100.00;69501.63;5012574;28;20030;-65
2023/06/06 06:53:44;;;;;;;18.13;8.75;;;;;;;-146.58;100.00;69501.63;5011947;28;20547;-65
2023/06/06 06:56:10;;;;;;;12.80;9.00;;;;;;;-146.58;100.00;69501.63;5013317;28;20057;-66
2023/06/06 06:58:37;;;;;;;11.50;8.23;;;;;;;-146.58;100.00;69501.63;5012299;28;20040;-65
2023/06/06 07:01:05;;;;;;;11.82;9.02;;;;;;;-146.58;100.00;69501.63;5013542;28;20027;-65
2023/06/06 07:03:34;;;;;;;15.18;9.02;;;;;;;-146.58;100.00;69501.63;5015540;28;20056;-65
2023/06/06 07:05:59;;;;;;;11.20;9.60;;;;;;;-146.58;100.00;69501.63;5033038;28;20028;-65
2023/06/06 07:08:25;;;;;;;12.10;8.80;;;;;;;-146.58;100.00;69501.63;5031914;28;20872;-65
2023/06/06 07:10:50;;;;;;;20.02;8.80;;;;;;;-146.58;100.00;69501.63;5032540;28;20025;-65
2023/06/06 07:13:15;;;;;;;16.77;9.45;;;;;;;-146.58;100.00;69501.63;5031501;28;20068;-65
2023/06/06 07:15:41;;;;;;;18.65;9.82;;;;;;;-146.58;100.00;69501.63;5032897;28;20045;-65
2023/06/06 07:18:06;;;;;;;12.18;8.48;;;;;;;-146.58;100.00;69501.63;5032835;28;20033;-65
2023/06/06 07:20:31;;;;;;;16.35;7.60;;;;;;;-146.58;100.00;69501.63;5031553;28;20069;-65
2023/06/06 07:22:57;;;;;;;11.90;6.45;;;;;;;-146.58;100.00;69501.63;5032645;28;20021;-65
2023/06/06 07:25:23;;;;;;;11.85;7.82;;;;;;;-146.58;100.00;69501.63;5030164;28;20084;-64
2023/06/06 07:27:48;;;;;;;12.35;7.63;;;;;;;-146.58;100.00;69501.63;5031987;28;20029;-65
2023/06/06 07:30:14;;;;;;;13.13;7.97;;;;;;;-146.58;100.00;69501.63;5031415;28;20048;-65
2023/06/06 07:32:43;;;;;;;12.25;8.55;;;;;;;-146.58;100.00;69501.63;5032227;28;20448;-65
2023/06/06 07:35:19;;;;;;;19.98;8.65;;;;;;;-146.58;100.00;69501.63;5031235;28;20040;-65
2023/06/06 07:37:44;;;;;;;15.82;8.35;;;;;;;-146.58;100.00;69501.63;5032642;28;20059;-66
2023/06/06 07:40:11;;;;;;;11.38;6.97;;;;;;;-146.58;100.00;69501.63;5030852;28;20491;-65
2023/06/06 07:42:39;;;;;;;9.57;7.70;;;;;;;-146.58;100.00;69501.63;5032691;28;20033;-65
2023/06/06 07:45:04;;;;;;;11.93;7.37;;;;;;;-146.58;100.00;69501.63;5022609;28;20049;-65
2023/06/06 07:47:30;;;;;;;12.73;8.25;;;;;;;-146.58;100.00;69501.63;5032131;28;20041;-66
2023/06/06 07:49:55;;;;;;;16.80;7.85;;;;;;;-146.58;100.00;69501.63;5030743;28;20041;-65
2023/06/06 07:52:20;;;;;;;10.98;8.77;;;;;;;-146.58;100.00;69501.63;5032228;28;20036;-65
2023/06/06 07:54:46;;;;;;;12.48;9.52;;;;;;;-146.58;100.00;69501.63;5030127;28;20046;-66
2023/06/06 07:57:16;;;;;;;10.93;8.50;;;;;;;-146.58;100.00;69501.63;5032366;28;20017;-66
2023/06/06 07:59:42;;;;;;;9.60;5.95;;;;;;;-146.58;100.00;69501.63;5030715;28;20451;-64
2023/06/06 08:02:07;;;;;;;15.10;8.25;;;;;;;-146.58;100.00;69501.63;5031637;28;20045;-64
2023/06/06 08:04:33;;;;;;;14.60;6.70;;;;;;;-146.58;100.00;69501.63;5030727;28;20449;-65
2023/06/06 08:06:58;;;;;;;12.25;6.97;;;;;;;-146.58;100.00;69501.63;5030455;28;20033;-65
2023/06/06 08:09:24;;;;;;;16.70;7.70;;;;;;;-146.58;100.00;69501.63;5030328;28;20037;-65
2023/06/06 08:11:49;;;;;;;16.25;6.97;;;;;;;-146.58;100.00;69501.63;5032086;28;20028;-66
2023/06/06 08:14:15;;;;;;;12.43;8.38;;;;;;;-146.58;100.00;69501.63;5030349;28;20033;-65
2023/06/06 08:16:41;;;;;;;18.15;9.85;;;;;;;-146.58;100.00;69501.63;5031264;28;20037;-64
2023/06/06 08:19:06;;;;;;;7.85;6.20;;;;;;;-146.58;100.00;69501.63;5030437;28;20505;-65
2023/06/06 08:21:31;;;;;;;8.98;6.35;;;;;;;-146.58;100.00;69501.63;5031880;28;20036;-65
2023/06/06 08:23:57;;;;;;;13.63;8.50;;;;;;;-146.58;100.00;69501.63;5029786;28;20412;-65
2023/06/06 08:26:25;;;;;;;12.18;7.53;;;;;;;-146.58;100.00;69501.63;5031672;28;20029;-65
2023/06/06 08:28:53;;;;;;;10.95;5.55;;;;;;;-146.58;100.00;69501.63;5029931;28;20493;-65
2023/06/06 08:31:19;;;;;;;8.63;5.75;;;;;;;-146.58;100.00;69501.63;5031358;28;20029;-64
2023/06/06 08:33:45;;;;;;;10.32;6.30;;;;;;;-146.58;100.00;69501.63;5029681;28;20041;-63
2023/06/06 08:36:11;;;;;;;11.35;6.65;;;;;;;-146.58;100.00;69501.63;5031624;28;20540;-63
2023/06/06 08:38:38;;;;;;;9.85;6.35;;;;;;;-146.58;100.00;69501.63;5029476;28;20040;-63
2023/06/06 08:41:05;;;;;;;16.27;7.75;;;;;;;-146.58;100.00;69501.63;5031444;28;20021;-63
2023/06/06 08:43:36;;;;;;;12.30;7.35;;;;;;;-146.58;100.00;69501.63;5029996;28;20417;-63
2023/06/06 08:46:02;;;;;;;14.30;6.72;;;;;;;-146.58;100.00;69501.63;5030765;28;20472;-64
2023/06/06 08:48:28;;;;;;;9.55;7.03;;;;;;;-146.58;100.00;69501.63;5029937;28;20025;-63
2023/06/06 08:50:56;;;;;;;12.18;6.72;;;;;;;-146.58;100.00;69501.63;5031406;28;20022;-63
2023/06/06 08:53:22;;;;;;;11.55;7.07;;;;;;;-146.58;100.00;69501.63;5029569;28;20388;-63
2023/06/06 08:55:47;;;;;;;18.08;6.22;;;;;;;-146.58;100.00;69501.63;5031056;28;20024;-64
2023/06/06 08:58:14;;;;;;;10.10;6.18;;;;;;;-146.58;100.00;69501.63;5029601;28;20032;-63
2023/06/06 09:00:39;;;;;;;16.02;6.32;;;;;;;-146.58;100.00;69501.63;5030685;28;20021;-63
2023/06/06 09:03:11;;;;;;;8.20;6.28;;;;;;;-146.58;100.00;69501.63;5030280;28;20049;-63
2023/06/06 09:05:38;;;;;;;8.73;5.65;;;;;;;-146.58;100.00;69501.63;5029264;28;20038;-63
2023/06/06 09:08:04;;;;;;;18.38;7.88;;;;;;;-146.58;100.00;69501.63;5030817;28;20115;-64
2023/06/06 09:10:29;;;;;;;15.60;7.18;;;;;;;-146.58;100.00;69501.63;5029579;28;20044;-63
2023/06/06 09:12:55;;;;;;;13.88;6.80;;;;;;;-146.58;100.00;69501.63;5030627;28;20025;-63
2023/06/06 09:15:20;;;;;;;14.57;6.63;;;;;;;-146.58;100.00;69501.63;5029081;28;20154;-63
2023/06/06 09:17:46;;;;;;;15.65;6.75;;;;;;;-146.58;100.00;69501.63;5030744;28;20376;-63
2023/06/06 09:20:14;;;;;;;12.52;7.00;;;;;;;-146.58;100.00;69501.63;5029391;28;20090;-62
2023/06/06 09:22:41;;;;;;;13.75;6.10;;;;;;;-146.58;100.00;69501.63;5030658;28;20052;-62
2023/06/06 09:25:17;;;;;;;18.98;7.15;;;;;;;-146.58;100.00;69501.63;5029189;28;20072;-62
2023/06/06 09:27:43;;;;;;;17.10;6.60;;;;;;;-146.58;100.00;69501.63;5030566;28;20053;-63
2023/06/06 09:30:35;;;;;;;12.35;7.00;;;;;;;-146.58;100.00;69501.63;5029066;28;20114;-63
2023/06/06 09:33:03;;;;;;;8.63;5.13;;;;;;;-146.58;100.00;69501.63;5030361;28;20535;-63
2023/06/06 09:35:37;;;;;;;10.10;6.20;;;;;;;-146.58;100.00;69501.63;5029147;28;20116;-63
2023/06/06 09:38:14;;;;;;;11.77;6.80;;;;;;;-146.58;100.00;69501.63;5030437;28;20021;-63
2023/06/06 09:40:48;;;;;;;15.73;6.82;;;;;;;-146.58;100.00;69501.63;5029165;28;20045;-63
2023/06/06 09:43:14;;;;;;;13.07;5.60;;;;;;;-146.58;100.00;69501.63;5029183;28;20486;-63
2023/06/06 09:45:52;;;;;;;11.20;6.20;;;;;;;-146.58;100.00;69501.63;5030057;28;20026;-63
2023/06/06 09:48:26;;;;;;;7.05;5.20;;;;;;;-146.58;100.00;69501.63;5029267;28;20029;-63
2023/06/06 09:50:52;;;;;;;9.73;5.68;;;;;;;-146.58;100.00;69501.63;5030793;28;20416;-63
2023/06/06 09:53:17;;;;;;;6.55;5.22;;;;;;;-146.58;100.00;69501.63;5028756;28;20028;-63
2023/06/06 09:55:44;;;;;;;9.55;5.57;;;;;;;-146.58;100.00;69501.63;5030126;28;20072;-63
2023/06/06 09:58:15;;;;;;;8.30;5.00;;;;;;;-146.58;100.00;69501.63;5030812;28;20021;-63
2023/06/06 10:00:43;;;;;;;18.05;5.75;;;;;;;-146.58;100.00;69501.63;5028801;28;20519;-63
2023/06/06 10:03:18;;;;;;;11.02;5.07;;;;;;;-146.58;100.00;69501.63;5030330;28;20049;-63
2023/06/06 10:05:43;;;;;;;9.93;5.32;;;;;;;-146.58;100.00;69501.63;5009149;28;20057;-62
2023/06/06 10:08:09;;;;;;;9.80;5.07;;;;;;;-146.58;100.00;69501.63;5010381;28;20022;-63
2023/06/06 10:10:36;;;;;;;12.07;6.28;;;;;;;-146.58;100.00;69501.63;5006946;28;20503;-63
2023/06/06 10:13:03;;;;;;;12.70;6.32;;;;;;;-146.58;100.00;69501.63;5008622;28;20053;-63
2023/06/06 10:15:29;;;;;;;13.55;7.07;;;;;;;-146.58;100.00;69501.63;5011244;28;20034;-62
2023/06/06 10:17:56;;;;;;;10.77;5.30;;;;;;;-146.58;100.00;69501.63;5013242;28;20055;-63
2023/06/06 10:20:22;;;;;;;9.45;5.47;;;;;;;-146.58;100.00;69501.63;5011342;28;20046;-62
2023/06/06 10:22:47;;;;;;;7.32;4.07;;;;;;;-146.58;100.00;69501.63;5013167;28;20026;-63
2023/06/06 10:25:16;;;;;;;6.80;5.13;;;;;;;-146.58;100.00;69501.63;5012055;28;20143;-64
2023/06/06 10:27:50;;;;;;;;;;;;;;;-146.58;100.00;69501.63;5012454;28;20022;-63
2023/06/06 10:30:26;;;;;;;10.13;6.82;;;;;;;-146.58;100.00;69501.63;5011622;28;20339;-63
2023/06/06 10:33:06;;;;;;;15.18;6.55;;;;;;;-146.58;100.00;69501.63;5012530;28;20025;-63
2023/06/06 10:35:33;;;;;;;7.03;4.35;;;;;;;-146.58;100.00;69501.63;5012313;28;20180;-63
2023/06/06 10:38:09;;;;;;;6.85;4.60;;;;;;;-146.58;100.00;69501.63;5012969;28;20068;-63
2023/06/06 10:40:42;;;;;;;16.73;5.75;;;;;;;-146.58;100.00;69501.63;5011812;28;20382;-63
2023/06/06 10:43:10;;;;;;;12.02;6.20;;;;;;;-146.58;100.00;69501.63;5013740;28;20021;-62
2023/06/06 10:45:46;;;;;;;13.95;6.18;;;;;;;-146.58;100.00;69501.63;5011463;28;20038;-63
2023/06/06 10:48:13;;;;;;;11.85;6.38;;;;;;;-146.58;100.00;69501.63;5012108;28;20444;-63
2023/06/06 10:50:52;;;;;;;8.30;4.60;;;;;;;-146.58;100.00;69501.63;5011941;28;20100;-62
2023/06/06 10:53:17;;;;;;;7.28;4.97;;;;;;;-146.58;100.00;69501.63;5011330;28;20447;-63
2023/06/06 10:55:46;;;;;;;8.55;4.53;;;;;;;-146.58;100.00;69501.63;5013138;28;20018;-64